Time,TemperatureF,DewpointF,PressureIn,WindDirection,WindDirectionDegrees,WindSpeedMPH,WindSpeedGustMPH,Humidity,HourlyPrecipIn,Conditions,Clouds,dailyrainin,SolarRadiationWatts/m^2,SoftwareType,DateUTC
2013-09-16 00:22:00,51.0,47.0,-100.00,ENE,65,6.0,8.0,87,0.00,,,0.01,0.000000,,2013-09-16 05:22:00,
2013-09-16 00:33:00,51.0,47.0,-100.00,ENE,65,6.0,8.0,87,0.00,,,0.01,0.000000,,2013-09-16 05:33:00,
2013-09-16 00:44:00,51.0,47.0,-100.00,ENE,65,6.0,8.0,87,0.00,,,0.01,0.000000,,2013-09-16 05:44:00,
2013-09-16 00:52:00,51.0,47.0,-100.00,ENE,65,6.0,8.0,87,0.00,,,0.01,0.000000,,2013-09-16 05:52:00,
2013-09-16 01:22:00,50.0,46.0,-100.00,ENE,73,6.0,9.0,86,0.00,,,0.01,0.000000,,2013-09-16 06:22:00,
2013-09-16 01:32:00,50.0,46.0,-100.00,ENE,73,6.0,9.0,86,0.00,,,0.01,0.000000,,2013-09-16 06:32:00,
2013-09-16 01:43:00,50.0,46.0,-100.00,ENE,73,6.0,9.0,86,0.00,,,0.01,0.000000,,2013-09-16 06:43:00,
2013-09-16 01:52:00,50.0,46.0,-100.00,ENE,73,6.0,9.0,86,0.00,,,0.01,0.000000,,2013-09-16 06:52:00,
2013-09-16 02:22:00,49.0,46.0,-100.00,ESE,115,5.0,7.0,88,0.00,,,0.01,0.000000,,2013-09-16 07:22:00,
2013-09-16 02:32:00,49.0,46.0,-100.00,ESE,115,5.0,7.0,88,0.00,,,0.01,0.000000,,2013-09-16 07:32:00,
2013-09-16 02:43:00,49.0,46.0,-100.00,ESE,115,5.0,7.0,88,0.00,,,0.01,0.000000,,2013-09-16 07:43:00,
2013-09-16 02:52:00,49.0,46.0,-100.00,ESE,115,5.0,7.0,88,0.00,,,0.01,0.000000,,2013-09-16 07:52:00,
2013-09-16 03:22:00,47.0,47.0,-100.00,SSE,162,7.0,8.0,100,0.00,,,0.01,0.000000,,2013-09-16 08:22:00,
2013-09-16 03:32:00,47.0,47.0,-100.00,SSE,162,7.0,8.0,100,0.00,,,0.01,0.000000,,2013-09-16 08:32:00,
2013-09-16 03:42:00,47.0,47.0,-100.00,SSE,162,7.0,8.0,100,0.00,,,0.01,0.000000,,2013-09-16 08:42:00,
2013-09-16 03:52:00,47.0,47.0,-100.00,SSE,162,7.0,8.0,100,0.00,,,0.01,0.000000,,2013-09-16 08:52:00,
2013-09-16 04:22:00,47.0,47.0,-100.00,SSE,166,7.0,8.0,100,0.00,,,0.01,0.000000,,2013-09-16 09:22:00,
2013-09-16 04:33:00,47.0,47.0,-100.00,SSE,166,7.0,8.0,100,0.00,,,0.01,0.000000,,2013-09-16 09:33:00,
2013-09-16 04:43:00,47.0,47.0,-100.00,SSE,166,7.0,8.0,100,0.00,,,0.01,0.000000,,2013-09-16 09:43:00,
2013-09-16 04:53:00,47.0,47.0,-100.00,SSE,166,7.0,8.0,100,0.00,,,0.01,0.000000,,2013-09-16 09:53:00,
2013-09-16 05:23:00,46.0,46.0,-100.00,South,170,5.0,9.0,100,0.00,,,0.01,0.000000,,2013-09-16 10:23:00,
2013-09-16 05:33:00,46.0,46.0,-100.00,South,170,5.0,9.0,100,0.00,,,0.01,0.000000,,2013-09-16 10:33:00,
2013-09-16 05:42:00,46.0,46.0,-100.00,South,170,5.0,9.0,100,0.00,,,0.01,0.000000,,2013-09-16 10:42:00,
2013-09-16 05:53:00,46.0,46.0,-100.00,South,170,5.0,9.0,100,0.00,,,0.01,0.000000,,2013-09-16 10:53:00,
2013-09-16 06:22:00,45.0,45.0,-100.00,SSW,192,6.0,9.0,100,0.00,,,0.01,0.000000,,2013-09-16 11:22:00,
2013-09-16 06:33:00,45.0,45.0,-100.00,SSW,192,6.0,9.0,100,0.00,,,0.01,0.000000,,2013-09-16 11:33:00,
2013-09-16 06:42:00,45.0,45.0,-100.00,SSW,192,6.0,9.0,100,0.00,,,0.01,0.000000,,2013-09-16 11:42:00,
2013-09-16 06:52:00,45.0,45.0,-100.00,SSW,192,6.0,9.0,100,0.00,,,0.01,0.000000,,2013-09-16 11:52:00,
2013-09-16 07:22:00,45.0,45.0,-100.00,South,179,7.0,10.0,100,0.00,,,0.00,0.000000,,2013-09-16 12:22:00,
2013-09-16 07:32:00,45.0,45.0,-100.00,South,179,7.0,10.0,100,0.00,,,0.00,0.000000,,2013-09-16 12:32:00,
2013-09-16 07:42:00,45.0,45.0,-100.00,South,179,7.0,10.0,100,0.00,,,0.00,0.000000,,2013-09-16 12:42:00,
2013-09-16 07:52:00,45.0,45.0,-100.00,South,179,7.0,10.0,100,0.00,,,0.00,0.000000,,2013-09-16 12:52:00,
2013-09-16 08:22:00,47.0,47.0,-100.00,SSE,161,8.0,10.0,100,0.00,,,0.00,17.000000,,2013-09-16 13:22:00,
2013-09-16 08:32:00,47.0,47.0,-100.00,SSE,161,8.0,10.0,100,0.00,,,0.00,17.000000,,2013-09-16 13:32:00,
2013-09-16 08:42:00,47.0,47.0,-100.00,SSE,161,8.0,10.0,100,0.00,,,0.00,17.000000,,2013-09-16 13:42:00,
2013-09-16 08:52:00,47.0,47.0,-100.00,SSE,161,8.0,10.0,100,0.00,,,0.00,17.000000,,2013-09-16 13:52:00,
2013-09-16 09:42:00,51.0,51.0,-100.00,South,179,8.0,11.0,100,0.00,,,0.00,74.000000,,2013-09-16 14:42:00,
2013-09-16 09:52:00,51.0,51.0,-100.00,South,179,8.0,11.0,100,0.00,,,0.00,74.000000,,2013-09-16 14:52:00,
2013-09-16 10:43:00,55.0,55.0,-100.00,South,169,11.0,15.0,100,0.00,,,0.00,284.000000,,2013-09-16 15:43:00,
2013-09-16 10:53:00,55.0,55.0,-100.00,South,169,11.0,15.0,100,0.00,,,0.00,284.000000,,2013-09-16 15:53:00,
2013-09-16 11:43:00,59.0,55.0,-100.00,South,174,11.0,16.0,88,0.00,,,0.00,617.000000,,2013-09-16 16:43:00,
2013-09-16 11:52:00,59.0,55.0,-100.00,South,174,11.0,16.0,88,0.00,,,0.00,617.000000,,2013-09-16 16:52:00,
2013-09-16 12:23:00,61.0,54.0,-100.00,SSW,192,14.0,18.0,79,0.00,,,0.00,715.000000,,2013-09-16 17:23:00,
2013-09-16 12:33:00,61.0,54.0,-100.00,SSW,192,14.0,18.0,79,0.00,,,0.00,715.000000,,2013-09-16 17:33:00,
2013-09-16 12:42:00,61.0,54.0,-100.00,SSW,192,14.0,18.0,79,0.00,,,0.00,715.000000,,2013-09-16 17:42:00,
2013-09-16 12:53:00,61.0,54.0,-100.00,SSW,192,14.0,18.0,79,0.00,,,0.00,715.000000,,2013-09-16 17:53:00,
2013-09-16 13:22:00,62.0,54.0,-100.00,South,191,13.0,19.0,74,0.00,,,0.00,654.000000,,2013-09-16 18:22:00,
2013-09-16 13:32:00,62.0,54.0,-100.00,South,191,13.0,19.0,74,0.00,,,0.00,654.000000,,2013-09-16 18:32:00,
2013-09-16 13:42:00,62.0,54.0,-100.00,South,191,13.0,19.0,74,0.00,,,0.00,654.000000,,2013-09-16 18:42:00,
2013-09-16 13:52:00,62.0,54.0,-100.00,South,191,13.0,19.0,74,0.00,,,0.00,654.000000,,2013-09-16 18:52:00,
2013-09-16 14:22:00,63.0,49.0,-100.00,South,185,14.0,21.0,60,0.00,,,0.00,822.000000,,2013-09-16 19:22:00,
2013-09-16 14:32:00,63.0,49.0,-100.00,South,185,14.0,21.0,60,0.00,,,0.00,822.000000,,2013-09-16 19:32:00,
2013-09-16 14:42:00,63.0,49.0,-100.00,South,185,14.0,21.0,60,0.00,,,0.00,822.000000,,2013-09-16 19:42:00,
2013-09-16 14:53:00,63.0,49.0,-100.00,South,185,14.0,21.0,60,0.00,,,0.00,822.000000,,2013-09-16 19:53:00,
2013-09-16 15:22:00,65.0,49.0,-100.00,SSW,199,13.0,21.0,57,0.00,,,0.00,807.000000,,2013-09-16 20:22:00,
2013-09-16 15:32:00,65.0,49.0,-100.00,SSW,199,13.0,21.0,57,0.00,,,0.00,807.000000,,2013-09-16 20:32:00,
2013-09-16 15:43:00,65.0,49.0,-100.00,SSW,199,13.0,21.0,57,0.00,,,0.00,807.000000,,2013-09-16 20:43:00,
2013-09-16 15:52:00,65.0,49.0,-100.00,SSW,199,13.0,21.0,57,0.00,,,0.00,807.000000,,2013-09-16 20:52:00,
2013-09-16 16:22:00,66.0,50.0,-100.00,South,186,14.0,21.0,57,0.00,,,0.00,694.000000,,2013-09-16 21:22:00,
2013-09-16 16:34:00,66.0,50.0,-100.00,South,186,14.0,21.0,57,0.00,,,0.00,694.000000,,2013-09-16 21:34:00,
2013-09-16 16:44:00,66.0,50.0,-100.00,South,186,14.0,21.0,57,0.00,,,0.00,694.000000,,2013-09-16 21:44:00,
2013-09-16 16:55:00,66.0,50.0,-100.00,South,186,14.0,21.0,57,0.00,,,0.00,694.000000,,2013-09-16 21:55:00,
2013-09-16 17:24:00,66.0,47.0,-100.00,SSW,193,16.0,22.0,50,0.00,,,0.00,540.000000,,2013-09-16 22:24:00,
2013-09-16 17:33:00,66.0,47.0,-100.00,SSW,193,16.0,22.0,50,0.00,,,0.00,540.000000,,2013-09-16 22:33:00,
2013-09-16 17:43:00,66.0,47.0,-100.00,SSW,193,16.0,22.0,50,0.00,,,0.00,540.000000,,2013-09-16 22:43:00,
2013-09-16 17:53:00,66.0,47.0,-100.00,SSW,193,16.0,22.0,50,0.00,,,0.00,540.000000,,2013-09-16 22:53:00,
2013-09-16 18:22:00,65.0,47.0,-100.00,SSW,193,16.0,23.0,52,0.00,,,0.00,343.000000,,2013-09-16 23:22:00,
2013-09-16 18:34:00,65.0,47.0,-100.00,SSW,193,16.0,23.0,52,0.00,,,0.00,343.000000,,2013-09-16 23:34:00,
2013-09-16 18:43:00,65.0,47.0,-100.00,SSW,193,16.0,23.0,52,0.00,,,0.00,343.000000,,2013-09-16 23:43:00,
2013-09-16 18:52:00,65.0,47.0,-100.00,SSW,193,16.0,23.0,52,0.00,,,0.00,343.000000,,2013-09-16 23:52:00,
2013-09-16 19:22:00,63.0,47.0,-100.00,South,191,13.0,21.0,56,0.00,,,0.00,158.000000,,2013-09-17 00:22:00,
2013-09-16 19:32:00,63.0,47.0,-100.00,South,191,13.0,21.0,56,0.00,,,0.00,158.000000,,2013-09-17 00:32:00,
2013-09-16 19:42:00,63.0,47.0,-100.00,South,191,13.0,21.0,56,0.00,,,0.00,158.000000,,2013-09-17 00:42:00,
2013-09-16 19:52:00,63.0,47.0,-100.00,South,191,13.0,21.0,56,0.00,,,0.00,158.000000,,2013-09-17 00:52:00,
2013-09-16 20:21:00,59.0,48.0,-100.00,South,183,13.0,19.0,66,0.00,,,0.00,13.000000,,2013-09-17 01:21:00,
2013-09-16 20:32:00,59.0,48.0,-100.00,South,183,13.0,19.0,66,0.00,,,0.00,13.000000,,2013-09-17 01:32:00,
2013-09-16 20:42:00,59.0,48.0,-100.00,South,183,13.0,19.0,66,0.00,,,0.00,13.000000,,2013-09-17 01:42:00,
2013-09-16 20:52:00,59.0,48.0,-100.00,South,183,13.0,19.0,66,0.00,,,0.00,13.000000,,2013-09-17 01:52:00,
2013-09-16 21:22:00,57.0,48.0,-100.00,South,176,13.0,19.0,71,0.00,,,0.00,0.000000,,2013-09-17 02:22:00,
2013-09-16 21:32:00,57.0,48.0,-100.00,South,176,13.0,19.0,71,0.00,,,0.00,0.000000,,2013-09-17 02:32:00,
2013-09-16 21:42:00,57.0,48.0,-100.00,South,176,13.0,19.0,71,0.00,,,0.00,0.000000,,2013-09-17 02:42:00,
2013-09-16 21:52:00,57.0,48.0,-100.00,South,176,13.0,19.0,71,0.00,,,0.00,0.000000,,2013-09-17 02:52:00,
2013-09-16 22:23:00,55.0,50.0,-100.00,South,173,13.0,17.0,83,0.00,,,0.00,0.000000,,2013-09-17 03:23:00,
2013-09-16 22:34:00,55.0,50.0,-100.00,South,173,13.0,17.0,83,0.00,,,0.00,0.000000,,2013-09-17 03:34:00,
2013-09-16 22:45:00,55.0,50.0,-100.00,South,173,13.0,17.0,83,0.00,,,0.00,0.000000,,2013-09-17 03:45:00,
2013-09-16 22:54:00,55.0,50.0,-100.00,South,173,13.0,17.0,83,0.00,,,0.00,0.000000,,2013-09-17 03:54:00,
2013-09-16 23:24:00,54.0,53.0,-100.00,South,175,13.0,16.0,95,0.00,,,0.00,0.000000,,2013-09-17 04:24:00,
2013-09-16 23:34:00,54.0,53.0,-100.00,South,175,13.0,16.0,95,0.00,,,0.00,0.000000,,2013-09-17 04:34:00,
2013-09-16 23:44:00,54.0,53.0,-100.00,South,175,13.0,16.0,95,0.00,,,0.00,0.000000,,2013-09-17 04:44:00,
2013-09-16 23:54:00,54.0,53.0,-100.00,South,175,13.0,16.0,95,0.00,,,0.00,0.000000,,2013-09-17 04:54:00,